sensor_id;sensor_type;location;lat;lon;timestamp;P1;durP1;ratioP1;P2;durP2;ratioP2
58260;SDS011;44058;52.898;6.502;2023-03-11T00:02:09;4.47;;;1.10;;
58260;SDS011;44058;52.898;6.502;2023-03-11T00:04:35;4.23;;;1.20;;
58260;SDS011;44058;52.898;6.502;2023-03-11T00:07:04;4.23;;;1.20;;
58260;SDS011;44058;52.898;6.502;2023-03-11T00:09:31;3.47;;;1.30;;
58260;SDS011;44058;52.898;6.502;2023-03-11T00:11:57;4.43;;;1.20;;
58260;SDS011;44058;52.898;6.502;2023-03-11T00:14:23;5.37;;;1.30;;
58260;SDS011;44058;52.898;6.502;2023-03-11T00:16:49;6.00;;;1.30;;
58260;SDS011;44058;52.898;6.502;2023-03-11T00:19:15;3.53;;;1.00;;
58260;SDS011;44058;52.898;6.502;2023-03-11T00:21:41;5.10;;;1.13;;
58260;SDS011;44058;52.898;6.502;2023-03-11T00:24:07;5.00;;;1.60;;
58260;SDS011;44058;52.898;6.502;2023-03-11T00:26:33;10.00;;;1.63;;
58260;SDS011;44058;52.898;6.502;2023-03-11T00:29:00;6.03;;;2.00;;
58260;SDS011;44058;52.898;6.502;2023-03-11T00:31:26;4.57;;;1.00;;
58260;SDS011;44058;52.898;6.502;2023-03-11T00:33:53;6.30;;;1.67;;
58260;SDS011;44058;52.898;6.502;2023-03-11T00:36:22;6.88;;;1.38;;
58260;SDS011;44058;52.898;6.502;2023-03-11T00:38:49;7.63;;;1.20;;
58260;SDS011;44058;52.898;6.502;2023-03-11T00:41:15;3.13;;;1.10;;
58260;SDS011;44058;52.898;6.502;2023-03-11T00:43:41;3.37;;;1.07;;
58260;SDS011;44058;52.898;6.502;2023-03-11T00:46:08;3.60;;;1.17;;
58260;SDS011;44058;52.898;6.502;2023-03-11T00:48:34;5.07;;;1.27;;
58260;SDS011;44058;52.898;6.502;2023-03-11T00:51:00;5.20;;;1.20;;
58260;SDS011;44058;52.898;6.502;2023-03-11T00:53:26;3.23;;;1.00;;
58260;SDS011;44058;52.898;6.502;2023-03-11T00:55:52;3.67;;;1.27;;
58260;SDS011;44058;52.898;6.502;2023-03-11T00:58:18;2.77;;;1.20;;
58260;SDS011;44058;52.898;6.502;2023-03-11T01:00:46;2.70;;;1.10;;
58260;SDS011;44058;52.898;6.502;2023-03-11T01:03:13;7.20;;;1.20;;
58260;SDS011;44058;52.898;6.502;2023-03-11T01:05:39;4.43;;;1.00;;
58260;SDS011;44058;52.898;6.502;2023-03-11T01:08:05;5.97;;;1.13;;
58260;SDS011;44058;52.898;6.502;2023-03-11T01:10:31;5.80;;;1.23;;
58260;SDS011;44058;52.898;6.502;2023-03-11T01:12:58;4.17;;;1.10;;
58260;SDS011;44058;52.898;6.502;2023-03-11T01:15:26;5.90;;;1.20;;
58260;SDS011;44058;52.898;6.502;2023-03-11T01:17:53;7.55;;;1.42;;
58260;SDS011;44058;52.898;6.502;2023-03-11T01:20:19;3.70;;;1.00;;
58260;SDS011;44058;52.898;6.502;2023-03-11T01:22:45;7.40;;;1.57;;
58260;SDS011;44058;52.898;6.502;2023-03-11T01:25:12;7.10;;;1.40;;
58260;SDS011;44058;52.898;6.502;2023-03-11T01:27:39;3.07;;;0.77;;
58260;SDS011;44058;52.898;6.502;2023-03-11T01:30:06;5.43;;;1.50;;
58260;SDS011;44058;52.898;6.502;2023-03-11T01:32:32;3.90;;;1.10;;
58260;SDS011;44058;52.898;6.502;2023-03-11T01:34:58;3.90;;;0.90;;
58260;SDS011;44058;52.898;6.502;2023-03-11T01:37:24;3.80;;;1.00;;
58260;SDS011;44058;52.898;6.502;2023-03-11T01:39:50;2.77;;;0.83;;
58260;SDS011;44058;52.898;6.502;2023-03-11T01:42:16;2.67;;;0.83;;
58260;SDS011;44058;52.898;6.502;2023-03-11T01:44:42;3.07;;;1.00;;
58260;SDS011;44058;52.898;6.502;2023-03-11T01:49:34;6.17;;;1.10;;
58260;SDS011;44058;52.898;6.502;2023-03-11T01:52:06;5.07;;;0.93;;
58260;SDS011;44058;52.898;6.502;2023-03-11T01:54:33;3.70;;;0.80;;
58260;SDS011;44058;52.898;6.502;2023-03-11T01:57:00;4.40;;;0.83;;
58260;SDS011;44058;52.898;6.502;2023-03-11T01:59:30;6.90;;;1.13;;
58260;SDS011;44058;52.898;6.502;2023-03-11T02:04:37;0.97;;;0.60;;
58260;SDS011;44058;52.898;6.502;2023-03-11T02:07:06;2.83;;;0.97;;
58260;SDS011;44058;52.898;6.502;2023-03-11T02:09:32;2.90;;;0.63;;
58260;SDS011;44058;52.898;6.502;2023-03-11T02:11:58;5.73;;;1.00;;
58260;SDS011;44058;52.898;6.502;2023-03-11T02:14:25;0.90;;;0.60;;
58260;SDS011;44058;52.898;6.502;2023-03-11T02:16:54;2.10;;;0.68;;
58260;SDS011;44058;52.898;6.502;2023-03-11T02:19:23;2.50;;;0.80;;
58260;SDS011;44058;52.898;6.502;2023-03-11T02:21:51;5.30;;;1.10;;
58260;SDS011;44058;52.898;6.502;2023-03-11T02:24:34;2.67;;;1.10;;
58260;SDS011;44058;52.898;6.502;2023-03-11T02:27:04;4.83;;;0.60;;
58260;SDS011;44058;52.898;6.502;2023-03-11T02:29:31;2.53;;;1.10;;
58260;SDS011;44058;52.898;6.502;2023-03-11T02:31:59;4.13;;;1.10;;
58260;SDS011;44058;52.898;6.502;2023-03-11T02:34:28;2.30;;;0.77;;
58260;SDS011;44058;52.898;6.502;2023-03-11T02:36:55;3.40;;;0.70;;
58260;SDS011;44058;52.898;6.502;2023-03-11T02:41:55;5.43;;;0.77;;
58260;SDS011;44058;52.898;6.502;2023-03-11T02:44:21;3.53;;;0.90;;
58260;SDS011;44058;52.898;6.502;2023-03-11T02:46:47;2.80;;;0.50;;
58260;SDS011;44058;52.898;6.502;2023-03-11T02:49:14;5.37;;;1.27;;
58260;SDS011;44058;52.898;6.502;2023-03-11T02:51:40;5.30;;;0.73;;
58260;SDS011;44058;52.898;6.502;2023-03-11T02:54:07;3.53;;;0.70;;
58260;SDS011;44058;52.898;6.502;2023-03-11T02:56:33;2.93;;;0.80;;
58260;SDS011;44058;52.898;6.502;2023-03-11T02:58:59;3.67;;;0.90;;
58260;SDS011;44058;52.898;6.502;2023-03-11T03:01:25;5.37;;;0.87;;
58260;SDS011;44058;52.898;6.502;2023-03-11T03:03:51;2.27;;;0.70;;
58260;SDS011;44058;52.898;6.502;2023-03-11T03:06:17;2.93;;;0.83;;
58260;SDS011;44058;52.898;6.502;2023-03-11T03:08:44;5.33;;;0.70;;
58260;SDS011;44058;52.898;6.502;2023-03-11T03:11:10;2.10;;;0.70;;
58260;SDS011;44058;52.898;6.502;2023-03-11T03:13:36;3.47;;;0.70;;
58260;SDS011;44058;52.898;6.502;2023-03-11T03:16:02;1.97;;;0.57;;
58260;SDS011;44058;52.898;6.502;2023-03-11T03:18:28;3.60;;;0.73;;
58260;SDS011;44058;52.898;6.502;2023-03-11T03:20:54;1.37;;;0.60;;
58260;SDS011;44058;52.898;6.502;2023-03-11T03:23:20;1.90;;;0.70;;
58260;SDS011;44058;52.898;6.502;2023-03-11T03:25:46;1.73;;;0.67;;
58260;SDS011;44058;52.898;6.502;2023-03-11T03:28:12;6.07;;;1.00;;
58260;SDS011;44058;52.898;6.502;2023-03-11T03:30:38;4.03;;;1.10;;
58260;SDS011;44058;52.898;6.502;2023-03-11T03:33:05;2.10;;;0.60;;
58260;SDS011;44058;52.898;6.502;2023-03-11T03:35:32;3.27;;;0.77;;
58260;SDS011;44058;52.898;6.502;2023-03-11T03:37:59;6.97;;;1.10;;
58260;SDS011;44058;52.898;6.502;2023-03-11T03:40:25;2.20;;;0.60;;
58260;SDS011;44058;52.898;6.502;2023-03-11T03:42:51;2.80;;;0.60;;
58260;SDS011;44058;52.898;6.502;2023-03-11T03:45:17;2.80;;;0.70;;
58260;SDS011;44058;52.898;6.502;2023-03-11T03:47:43;2.97;;;0.63;;
58260;SDS011;44058;52.898;6.502;2023-03-11T03:50:10;4.80;;;0.73;;
58260;SDS011;44058;52.898;6.502;2023-03-11T03:52:36;3.63;;;0.80;;
58260;SDS011;44058;52.898;6.502;2023-03-11T03:55:03;6.47;;;0.77;;
58260;SDS011;44058;52.898;6.502;2023-03-11T03:57:30;4.37;;;0.60;;
58260;SDS011;44058;52.898;6.502;2023-03-11T03:59:56;6.20;;;0.90;;
58260;SDS011;44058;52.898;6.502;2023-03-11T04:02:22;2.27;;;0.80;;
58260;SDS011;44058;52.898;6.502;2023-03-11T04:04:48;3.00;;;0.80;;
58260;SDS011;44058;52.898;6.502;2023-03-11T04:07:14;4.87;;;1.17;;
58260;SDS011;44058;52.898;6.502;2023-03-11T04:09:41;2.63;;;0.60;;
58260;SDS011;44058;52.898;6.502;2023-03-11T04:12:12;1.77;;;0.50;;
58260;SDS011;44058;52.898;6.502;2023-03-11T04:14:39;1.17;;;0.60;;
58260;SDS011;44058;52.898;6.502;2023-03-11T04:17:05;4.63;;;0.80;;
58260;SDS011;44058;52.898;6.502;2023-03-11T04:19:31;4.20;;;0.83;;
58260;SDS011;44058;52.898;6.502;2023-03-11T04:21:57;5.97;;;0.93;;
58260;SDS011;44058;52.898;6.502;2023-03-11T04:24:23;3.60;;;0.80;;
58260;SDS011;44058;52.898;6.502;2023-03-11T04:26:49;2.17;;;0.80;;
58260;SDS011;44058;52.898;6.502;2023-03-11T04:29:16;2.97;;;0.70;;
58260;SDS011;44058;52.898;6.502;2023-03-11T04:31:42;4.60;;;1.10;;
58260;SDS011;44058;52.898;6.502;2023-03-11T04:34:08;6.97;;;1.10;;
58260;SDS011;44058;52.898;6.502;2023-03-11T04:36:35;2.57;;;0.70;;
58260;SDS011;44058;52.898;6.502;2023-03-11T04:39:01;3.03;;;0.80;;
58260;SDS011;44058;52.898;6.502;2023-03-11T04:41:27;4.23;;;1.17;;
58260;SDS011;44058;52.898;6.502;2023-03-11T04:43:53;2.17;;;0.70;;
58260;SDS011;44058;52.898;6.502;2023-03-11T04:46:19;6.27;;;1.57;;
58260;SDS011;44058;52.898;6.502;2023-03-11T04:48:46;4.60;;;0.83;;
58260;SDS011;44058;52.898;6.502;2023-03-11T04:51:12;4.00;;;1.00;;
58260;SDS011;44058;52.898;6.502;2023-03-11T04:53:38;3.20;;;1.20;;
58260;SDS011;44058;52.898;6.502;2023-03-11T04:56:04;2.80;;;0.90;;
58260;SDS011;44058;52.898;6.502;2023-03-11T04:58:30;1.77;;;0.80;;
58260;SDS011;44058;52.898;6.502;2023-03-11T05:00:56;2.97;;;0.73;;
58260;SDS011;44058;52.898;6.502;2023-03-11T05:03:22;1.60;;;0.80;;
58260;SDS011;44058;52.898;6.502;2023-03-11T05:05:48;1.97;;;0.70;;
58260;SDS011;44058;52.898;6.502;2023-03-11T05:08:16;2.13;;;0.70;;
58260;SDS011;44058;52.898;6.502;2023-03-11T05:10:42;2.80;;;0.80;;
58260;SDS011;44058;52.898;6.502;2023-03-11T05:13:09;2.50;;;0.70;;
58260;SDS011;44058;52.898;6.502;2023-03-11T05:15:35;2.13;;;0.90;;
58260;SDS011;44058;52.898;6.502;2023-03-11T05:18:02;2.10;;;0.60;;
58260;SDS011;44058;52.898;6.502;2023-03-11T05:20:28;3.37;;;0.73;;
58260;SDS011;44058;52.898;6.502;2023-03-11T05:22:55;3.63;;;0.93;;
58260;SDS011;44058;52.898;6.502;2023-03-11T05:25:21;4.47;;;1.07;;
58260;SDS011;44058;52.898;6.502;2023-03-11T05:27:47;2.93;;;0.77;;
58260;SDS011;44058;52.898;6.502;2023-03-11T05:30:13;0.97;;;0.70;;
58260;SDS011;44058;52.898;6.502;2023-03-11T05:32:39;3.43;;;0.90;;
58260;SDS011;44058;52.898;6.502;2023-03-11T05:35:06;5.33;;;0.90;;
58260;SDS011;44058;52.898;6.502;2023-03-11T05:37:32;4.83;;;0.70;;
58260;SDS011;44058;52.898;6.502;2023-03-11T05:39:59;1.90;;;0.93;;
58260;SDS011;44058;52.898;6.502;2023-03-11T05:42:25;1.70;;;0.67;;
58260;SDS011;44058;52.898;6.502;2023-03-11T05:44:51;2.97;;;0.80;;
58260;SDS011;44058;52.898;6.502;2023-03-11T05:47:18;5.07;;;0.80;;
58260;SDS011;44058;52.898;6.502;2023-03-11T05:49:45;4.77;;;0.90;;
58260;SDS011;44058;52.898;6.502;2023-03-11T05:52:11;1.47;;;0.60;;
58260;SDS011;44058;52.898;6.502;2023-03-11T05:54:37;3.03;;;1.27;;
58260;SDS011;44058;52.898;6.502;2023-03-11T05:57:04;4.50;;;1.00;;
58260;SDS011;44058;52.898;6.502;2023-03-11T05:59:30;5.77;;;1.60;;
58260;SDS011;44058;52.898;6.502;2023-03-11T06:01:56;5.07;;;2.40;;
58260;SDS011;44058;52.898;6.502;2023-03-11T06:04:23;5.40;;;2.20;;
58260;SDS011;44058;52.898;6.502;2023-03-11T06:06:49;5.77;;;2.90;;
58260;SDS011;44058;52.898;6.502;2023-03-11T06:09:15;5.37;;;2.77;;
58260;SDS011;44058;52.898;6.502;2023-03-11T06:11:41;6.73;;;2.60;;
58260;SDS011;44058;52.898;6.502;2023-03-11T06:14:11;5.70;;;2.97;;
58260;SDS011;44058;52.898;6.502;2023-03-11T06:16:37;7.83;;;4.50;;
58260;SDS011;44058;52.898;6.502;2023-03-11T06:19:03;9.70;;;4.50;;
58260;SDS011;44058;52.898;6.502;2023-03-11T06:21:30;5.60;;;3.30;;
58260;SDS011;44058;52.898;6.502;2023-03-11T06:23:56;6.17;;;3.03;;
58260;SDS011;44058;52.898;6.502;2023-03-11T06:26:22;10.03;;;3.37;;
58260;SDS011;44058;52.898;6.502;2023-03-11T06:28:49;5.43;;;2.60;;
58260;SDS011;44058;52.898;6.502;2023-03-11T06:31:19;4.80;;;1.80;;
58260;SDS011;44058;52.898;6.502;2023-03-11T06:33:46;8.23;;;1.90;;
58260;SDS011;44058;52.898;6.502;2023-03-11T06:36:16;6.87;;;1.80;;
58260;SDS011;44058;52.898;6.502;2023-03-11T06:38:43;7.15;;;1.40;;
58260;SDS011;44058;52.898;6.502;2023-03-11T06:41:10;5.23;;;1.30;;
58260;SDS011;44058;52.898;6.502;2023-03-11T06:43:37;4.43;;;1.20;;
58260;SDS011;44058;52.898;6.502;2023-03-11T06:46:10;4.73;;;1.63;;
58260;SDS011;44058;52.898;6.502;2023-03-11T06:48:36;4.60;;;1.23;;
58260;SDS011;44058;52.898;6.502;2023-03-11T06:51:03;4.27;;;1.40;;
58260;SDS011;44058;52.898;6.502;2023-03-11T06:53:29;4.63;;;1.20;;
58260;SDS011;44058;52.898;6.502;2023-03-11T06:58:24;6.22;;;2.00;;
58260;SDS011;44058;52.898;6.502;2023-03-11T07:00:51;6.70;;;1.83;;
58260;SDS011;44058;52.898;6.502;2023-03-11T07:03:17;7.50;;;2.30;;
58260;SDS011;44058;52.898;6.502;2023-03-11T07:05:43;5.73;;;2.00;;
58260;SDS011;44058;52.898;6.502;2023-03-11T07:08:09;3.80;;;1.40;;
58260;SDS011;44058;52.898;6.502;2023-03-11T07:10:35;4.90;;;1.60;;
58260;SDS011;44058;52.898;6.502;2023-03-11T07:13:02;4.13;;;1.53;;
58260;SDS011;44058;52.898;6.502;2023-03-11T07:15:28;6.07;;;1.87;;
58260;SDS011;44058;52.898;6.502;2023-03-11T07:17:54;3.43;;;1.90;;
58260;SDS011;44058;52.898;6.502;2023-03-11T07:20:20;7.13;;;2.00;;
58260;SDS011;44058;52.898;6.502;2023-03-11T07:22:46;6.87;;;2.50;;
58260;SDS011;44058;52.898;6.502;2023-03-11T07:25:12;4.40;;;1.80;;
58260;SDS011;44058;52.898;6.502;2023-03-11T07:27:39;5.27;;;1.90;;
58260;SDS011;44058;52.898;6.502;2023-03-11T07:30:05;3.80;;;1.90;;
58260;SDS011;44058;52.898;6.502;2023-03-11T07:32:31;5.13;;;1.50;;
58260;SDS011;44058;52.898;6.502;2023-03-11T07:34:57;7.03;;;2.20;;
58260;SDS011;44058;52.898;6.502;2023-03-11T07:37:24;4.80;;;2.00;;
58260;SDS011;44058;52.898;6.502;2023-03-11T07:39:50;3.87;;;1.40;;
58260;SDS011;44058;52.898;6.502;2023-03-11T07:42:16;6.90;;;1.67;;
58260;SDS011;44058;52.898;6.502;2023-03-11T07:44:42;4.30;;;2.27;;
58260;SDS011;44058;52.898;6.502;2023-03-11T07:47:08;4.70;;;1.73;;
58260;SDS011;44058;52.898;6.502;2023-03-11T07:49:34;2.50;;;1.70;;
58260;SDS011;44058;52.898;6.502;2023-03-11T07:52:00;11.53;;;2.77;;
58260;SDS011;44058;52.898;6.502;2023-03-11T07:54:27;6.63;;;2.40;;
58260;SDS011;44058;52.898;6.502;2023-03-11T07:56:53;6.73;;;1.80;;
58260;SDS011;44058;52.898;6.502;2023-03-11T07:59:19;4.57;;;1.97;;
58260;SDS011;44058;52.898;6.502;2023-03-11T08:01:45;3.43;;;1.60;;
58260;SDS011;44058;52.898;6.502;2023-03-11T08:04:11;6.53;;;2.03;;
58260;SDS011;44058;52.898;6.502;2023-03-11T08:06:40;7.70;;;2.03;;
58260;SDS011;44058;52.898;6.502;2023-03-11T08:09:07;4.35;;;1.45;;
58260;SDS011;44058;52.898;6.502;2023-03-11T08:11:34;5.73;;;1.43;;
58260;SDS011;44058;52.898;6.502;2023-03-11T08:14:00;4.70;;;1.23;;
58260;SDS011;44058;52.898;6.502;2023-03-11T08:16:27;5.87;;;1.40;;
58260;SDS011;44058;52.898;6.502;2023-03-11T08:18:53;4.80;;;1.10;;
58260;SDS011;44058;52.898;6.502;2023-03-11T08:21:21;5.87;;;1.53;;
58260;SDS011;44058;52.898;6.502;2023-03-11T08:23:47;6.07;;;1.43;;
58260;SDS011;44058;52.898;6.502;2023-03-11T08:26:15;5.53;;;1.67;;
58260;SDS011;44058;52.898;6.502;2023-03-11T08:28:42;2.97;;;1.17;;
58260;SDS011;44058;52.898;6.502;2023-03-11T08:31:14;7.87;;;1.60;;
58260;SDS011;44058;52.898;6.502;2023-03-11T08:33:41;3.90;;;1.50;;
58260;SDS011;44058;52.898;6.502;2023-03-11T08:36:07;3.60;;;1.23;;
58260;SDS011;44058;52.898;6.502;2023-03-11T08:38:34;5.27;;;1.50;;
58260;SDS011;44058;52.898;6.502;2023-03-11T08:41:01;9.47;;;1.40;;
58260;SDS011;44058;52.898;6.502;2023-03-11T08:43:27;5.50;;;1.50;;
58260;SDS011;44058;52.898;6.502;2023-03-11T08:45:53;6.60;;;1.50;;
58260;SDS011;44058;52.898;6.502;2023-03-11T08:48:19;4.43;;;2.10;;
58260;SDS011;44058;52.898;6.502;2023-03-11T08:50:45;5.67;;;1.60;;
58260;SDS011;44058;52.898;6.502;2023-03-11T08:53:11;6.03;;;1.27;;
58260;SDS011;44058;52.898;6.502;2023-03-11T08:55:38;4.67;;;1.30;;
58260;SDS011;44058;52.898;6.502;2023-03-11T08:58:04;7.10;;;1.73;;
58260;SDS011;44058;52.898;6.502;2023-03-11T09:00:30;1.63;;;1.10;;
58260;SDS011;44058;52.898;6.502;2023-03-11T09:02:56;2.50;;;1.20;;
58260;SDS011;44058;52.898;6.502;2023-03-11T09:05:22;4.53;;;1.20;;
58260;SDS011;44058;52.898;6.502;2023-03-11T09:07:48;4.40;;;1.20;;
58260;SDS011;44058;52.898;6.502;2023-03-11T09:10:14;4.40;;;1.00;;
58260;SDS011;44058;52.898;6.502;2023-03-11T09:12:41;2.70;;;0.93;;
58260;SDS011;44058;52.898;6.502;2023-03-11T09:15:07;3.03;;;1.20;;
58260;SDS011;44058;52.898;6.502;2023-03-11T09:17:34;2.23;;;0.90;;
58260;SDS011;44058;52.898;6.502;2023-03-11T09:20:00;2.17;;;1.07;;
58260;SDS011;44058;52.898;6.502;2023-03-11T09:22:26;2.90;;;1.50;;
58260;SDS011;44058;52.898;6.502;2023-03-11T09:24:52;4.68;;;1.58;;
58260;SDS011;44058;52.898;6.502;2023-03-11T09:27:18;5.03;;;1.45;;
58260;SDS011;44058;52.898;6.502;2023-03-11T09:29:44;4.20;;;1.40;;
58260;SDS011;44058;52.898;6.502;2023-03-11T09:32:11;4.47;;;1.48;;
58260;SDS011;44058;52.898;6.502;2023-03-11T09:34:37;2.92;;;1.42;;
58260;SDS011;44058;52.898;6.502;2023-03-11T09:37:03;4.13;;;1.33;;
58260;SDS011;44058;52.898;6.502;2023-03-11T09:39:30;7.15;;;1.27;;
58260;SDS011;44058;52.898;6.502;2023-03-11T09:42:04;4.30;;;1.20;;
58260;SDS011;44058;52.898;6.502;2023-03-11T09:52:15;4.05;;;1.30;;
58260;SDS011;44058;52.898;6.502;2023-03-11T09:54:44;4.60;;;1.50;;
58260;SDS011;44058;52.898;6.502;2023-03-11T09:57:13;4.45;;;1.38;;
58260;SDS011;44058;52.898;6.502;2023-03-11T10:02:09;3.55;;;1.20;;
58260;SDS011;44058;52.898;6.502;2023-03-11T10:04:39;4.55;;;1.25;;
58260;SDS011;44058;52.898;6.502;2023-03-11T10:07:14;5.50;;;1.27;;
58260;SDS011;44058;52.898;6.502;2023-03-11T10:09:50;2.78;;;1.10;;
58260;SDS011;44058;52.898;6.502;2023-03-11T10:20:23;3.58;;;1.45;;
58260;SDS011;44058;52.898;6.502;2023-03-11T10:25:21;7.63;;;1.25;;
58260;SDS011;44058;52.898;6.502;2023-03-11T10:27:59;5.13;;;1.27;;
58260;SDS011;44058;52.898;6.502;2023-03-11T10:30:36;4.70;;;1.30;;
58260;SDS011;44058;52.898;6.502;2023-03-11T10:33:06;8.10;;;1.75;;
58260;SDS011;44058;52.898;6.502;2023-03-11T10:35:40;3.65;;;1.10;;
58260;SDS011;44058;52.898;6.502;2023-03-11T10:39:09;2.85;;;1.00;;
58260;SDS011;44058;52.898;6.502;2023-03-11T10:41:13;3.35;;;1.02;;
58260;SDS011;44058;52.898;6.502;2023-03-11T10:43:44;6.00;;;1.48;;
58260;SDS011;44058;52.898;6.502;2023-03-11T10:46:14;1.90;;;1.15;;
58260;SDS011;44058;52.898;6.502;2023-03-11T10:48:43;9.77;;;1.20;;
58260;SDS011;44058;52.898;6.502;2023-03-11T10:51:19;3.00;;;1.10;;
58260;SDS011;44058;52.898;6.502;2023-03-11T10:53:56;5.57;;;1.27;;
58260;SDS011;44058;52.898;6.502;2023-03-11T10:58:58;2.60;;;1.30;;
58260;SDS011;44058;52.898;6.502;2023-03-11T11:01:24;4.93;;;1.20;;
58260;SDS011;44058;52.898;6.502;2023-03-11T11:03:52;6.07;;;1.23;;
58260;SDS011;44058;52.898;6.502;2023-03-11T11:08:45;4.40;;;1.35;;
58260;SDS011;44058;52.898;6.502;2023-03-11T11:11:22;5.95;;;1.10;;
58260;SDS011;44058;52.898;6.502;2023-03-11T11:13:55;5.90;;;1.30;;
58260;SDS011;44058;52.898;6.502;2023-03-11T11:16:22;4.60;;;1.00;;
58260;SDS011;44058;52.898;6.502;2023-03-11T11:18:49;2.97;;;0.80;;
58260;SDS011;44058;52.898;6.502;2023-03-11T11:24:23;4.60;;;1.30;;
58260;SDS011;44058;52.898;6.502;2023-03-11T11:29:34;5.03;;;1.17;;
58260;SDS011;44058;52.898;6.502;2023-03-11T11:32:15;3.00;;;0.93;;
58260;SDS011;44058;52.898;6.502;2023-03-11T11:34:44;5.15;;;1.05;;
58260;SDS011;44058;52.898;6.502;2023-03-11T11:37:17;3.50;;;0.82;;
58260;SDS011;44058;52.898;6.502;2023-03-11T11:39:45;3.83;;;0.90;;
58260;SDS011;44058;52.898;6.502;2023-03-11T11:42:17;3.08;;;1.00;;
58260;SDS011;44058;52.898;6.502;2023-03-11T11:44:45;3.90;;;1.30;;
58260;SDS011;44058;52.898;6.502;2023-03-11T11:47:12;4.00;;;1.23;;
58260;SDS011;44058;52.898;6.502;2023-03-11T11:49:43;3.10;;;1.02;;
58260;SDS011;44058;52.898;6.502;2023-03-11T11:52:14;2.95;;;0.82;;
58260;SDS011;44058;52.898;6.502;2023-03-11T11:55:01;2.75;;;1.10;;
58260;SDS011;44058;52.898;6.502;2023-03-11T11:57:28;4.30;;;1.05;;
58260;SDS011;44058;52.898;6.502;2023-03-11T11:59:54;3.70;;;1.27;;
58260;SDS011;44058;52.898;6.502;2023-03-11T12:05:26;2.25;;;0.80;;
58260;SDS011;44058;52.898;6.502;2023-03-11T12:08:08;2.40;;;1.08;;
58260;SDS011;44058;52.898;6.502;2023-03-11T12:10:41;4.60;;;0.90;;
58260;SDS011;44058;52.898;6.502;2023-03-11T12:18:24;2.35;;;0.90;;
58260;SDS011;44058;52.898;6.502;2023-03-11T12:20:53;4.95;;;0.73;;
58260;SDS011;44058;52.898;6.502;2023-03-11T12:23:35;2.10;;;0.73;;
58260;SDS011;44058;52.898;6.502;2023-03-11T12:28:48;2.92;;;0.65;;
58260;SDS011;44058;52.898;6.502;2023-03-11T12:31:16;2.67;;;0.55;;
58260;SDS011;44058;52.898;6.502;2023-03-11T12:33:48;1.77;;;0.43;;
58260;SDS011;44058;52.898;6.502;2023-03-11T12:36:23;2.25;;;0.68;;
58260;SDS011;44058;52.898;6.502;2023-03-11T12:38:49;5.32;;;0.70;;
58260;SDS011;44058;52.898;6.502;2023-03-11T12:41:26;5.32;;;0.65;;
58260;SDS011;44058;52.898;6.502;2023-03-11T12:43:57;3.25;;;0.70;;
58260;SDS011;44058;52.898;6.502;2023-03-11T12:46:23;3.97;;;0.80;;
58260;SDS011;44058;52.898;6.502;2023-03-11T12:49:12;3.10;;;0.65;;
58260;SDS011;44058;52.898;6.502;2023-03-11T12:51:39;2.67;;;0.55;;
58260;SDS011;44058;52.898;6.502;2023-03-11T12:54:19;4.60;;;0.57;;
58260;SDS011;44058;52.898;6.502;2023-03-11T12:56:53;3.97;;;0.70;;
58260;SDS011;44058;52.898;6.502;2023-03-11T13:01:55;2.63;;;0.55;;
58260;SDS011;44058;52.898;6.502;2023-03-11T13:09:37;2.17;;;0.40;;
58260;SDS011;44058;52.898;6.502;2023-03-11T13:12:22;2.17;;;0.52;;
58260;SDS011;44058;52.898;6.502;2023-03-11T13:15:04;2.05;;;0.63;;
58260;SDS011;44058;52.898;6.502;2023-03-11T13:17:35;4.90;;;0.77;;
58260;SDS011;44058;52.898;6.502;2023-03-11T13:20:02;3.60;;;0.75;;
58260;SDS011;44058;52.898;6.502;2023-03-11T13:27:33;4.60;;;0.90;;
58260;SDS011;44058;52.898;6.502;2023-03-11T13:42:56;2.90;;;0.80;;
58260;SDS011;44058;52.898;6.502;2023-03-11T13:45:27;3.53;;;0.70;;
58260;SDS011;44058;52.898;6.502;2023-03-11T13:47:55;3.63;;;0.65;;
58260;SDS011;44058;52.898;6.502;2023-03-11T13:50:30;4.45;;;0.85;;
58260;SDS011;44058;52.898;6.502;2023-03-11T13:52:59;3.40;;;0.65;;
58260;SDS011;44058;52.898;6.502;2023-03-11T13:55:29;4.28;;;0.80;;
58260;SDS011;44058;52.898;6.502;2023-03-11T13:57:57;5.57;;;2.67;;
58260;SDS011;44058;52.898;6.502;2023-03-11T14:00:24;3.40;;;0.52;;
58260;SDS011;44058;52.898;6.502;2023-03-11T14:03:00;1.88;;;0.40;;
58260;SDS011;44058;52.898;6.502;2023-03-11T14:05:29;1.88;;;0.47;;
58260;SDS011;44058;52.898;6.502;2023-03-11T14:08:10;1.73;;;0.85;;
58260;SDS011;44058;52.898;6.502;2023-03-11T14:10:37;2.60;;;0.52;;
58260;SDS011;44058;52.898;6.502;2023-03-11T14:13:04;2.58;;;0.65;;
58260;SDS011;44058;52.898;6.502;2023-03-11T14:15:30;3.80;;;0.80;;
58260;SDS011;44058;52.898;6.502;2023-03-11T14:18:21;2.97;;;0.60;;
58260;SDS011;44058;52.898;6.502;2023-03-11T14:20:49;2.60;;;0.50;;
58260;SDS011;44058;52.898;6.502;2023-03-11T14:23:17;3.47;;;0.60;;
58260;SDS011;44058;52.898;6.502;2023-03-11T14:25:43;3.97;;;1.10;;
58260;SDS011;44058;52.898;6.502;2023-03-11T14:28:16;1.73;;;0.50;;
58260;SDS011;44058;52.898;6.502;2023-03-11T14:30:53;3.20;;;0.60;;
58260;SDS011;44058;52.898;6.502;2023-03-11T14:33:20;3.10;;;0.65;;
58260;SDS011;44058;52.898;6.502;2023-03-11T14:35:54;4.07;;;0.90;;
58260;SDS011;44058;52.898;6.502;2023-03-11T14:38:21;2.10;;;0.93;;
58260;SDS011;44058;52.898;6.502;2023-03-11T14:40:52;2.00;;;0.60;;
58260;SDS011;44058;52.898;6.502;2023-03-11T14:43:19;4.25;;;0.63;;
58260;SDS011;44058;52.898;6.502;2023-03-11T14:45:47;2.53;;;0.63;;
58260;SDS011;44058;52.898;6.502;2023-03-11T14:48:25;3.13;;;0.70;;
58260;SDS011;44058;52.898;6.502;2023-03-11T14:50:54;4.57;;;0.93;;
58260;SDS011;44058;52.898;6.502;2023-03-11T14:53:22;4.05;;;0.90;;
58260;SDS011;44058;52.898;6.502;2023-03-11T14:55:50;3.47;;;0.80;;
58260;SDS011;44058;52.898;6.502;2023-03-11T14:58:21;5.40;;;0.60;;
58260;SDS011;44058;52.898;6.502;2023-03-11T15:01:36;1.35;;;0.80;;
58260;SDS011;44058;52.898;6.502;2023-03-11T15:03:37;2.13;;;0.50;;
58260;SDS011;44058;52.898;6.502;2023-03-11T15:06:11;3.63;;;0.55;;
58260;SDS011;44058;52.898;6.502;2023-03-11T15:08:41;2.88;;;0.52;;
58260;SDS011;44058;52.898;6.502;2023-03-11T15:13:38;2.00;;;0.40;;
58260;SDS011;44058;52.898;6.502;2023-03-11T15:16:51;3.10;;;0.60;;
58260;SDS011;44058;52.898;6.502;2023-03-11T15:18:51;3.67;;;0.70;;
58260;SDS011;44058;52.898;6.502;2023-03-11T15:21:20;1.83;;;0.60;;
58260;SDS011;44058;52.898;6.502;2023-03-11T15:26:16;2.72;;;0.80;;
58260;SDS011;44058;52.898;6.502;2023-03-11T15:28:43;2.85;;;0.80;;
58260;SDS011;44058;52.898;6.502;2023-03-11T15:31:30;5.47;;;1.20;;
58260;SDS011;44058;52.898;6.502;2023-03-11T15:34:06;2.90;;;0.80;;
58260;SDS011;44058;52.898;6.502;2023-03-11T15:36:34;1.98;;;0.75;;
58260;SDS011;44058;52.898;6.502;2023-03-11T15:41:35;6.32;;;0.88;;
58260;SDS011;44058;52.898;6.502;2023-03-11T15:44:01;1.25;;;0.60;;
58260;SDS011;44058;52.898;6.502;2023-03-11T15:46:32;1.95;;;0.55;;
58260;SDS011;44058;52.898;6.502;2023-03-11T15:48:58;3.30;;;0.80;;
58260;SDS011;44058;52.898;6.502;2023-03-11T15:51:24;5.60;;;1.73;;
58260;SDS011;44058;52.898;6.502;2023-03-11T15:53:51;3.17;;;1.63;;
58260;SDS011;44058;52.898;6.502;2023-03-11T15:56:22;11.20;;;4.97;;
58260;SDS011;44058;52.898;6.502;2023-03-11T15:58:48;2.83;;;0.68;;
58260;SDS011;44058;52.898;6.502;2023-03-11T16:01:15;2.45;;;0.50;;
58260;SDS011;44058;52.898;6.502;2023-03-11T16:03:42;0.70;;;0.40;;
58260;SDS011;44058;52.898;6.502;2023-03-11T16:06:08;2.13;;;0.75;;
58260;SDS011;44058;52.898;6.502;2023-03-11T16:08:34;2.10;;;0.57;;
58260;SDS011;44058;52.898;6.502;2023-03-11T16:11:00;3.10;;;0.68;;
58260;SDS011;44058;52.898;6.502;2023-03-11T16:13:26;2.30;;;0.60;;
58260;SDS011;44058;52.898;6.502;2023-03-11T16:15:52;2.25;;;0.60;;
58260;SDS011;44058;52.898;6.502;2023-03-11T16:18:18;1.85;;;0.70;;
58260;SDS011;44058;52.898;6.502;2023-03-11T16:23:12;0.90;;;0.57;;